Change the Weather History Date:

Tuesday, February 18, 2014

  Actual Average Record
Temperature  
Mean Temperature 45 °F -  
Max Temperature 53 °F 51 °F 60 °F (2008)
Min Temperature 37 °F 35 °F 26 °F (2005)
Degree Days  
Heating Degree Days 20    
Moisture  
Dew Point 43 °F    
Average Humidity 87    
Maximum Humidity 93    
Minimum Humidity 66    
Precipitation  
Precipitation 0.79 in - - ()
Sea Level Pressure  
Sea Level Pressure 29.97 in    
Wind  
Wind Speed 12 mph (SSW)    
Max Wind Speed 25 mph    
Max Gust Speed 31 mph    
Visibility 10 miles    
Events      
Averages and records for this station are not official NWS values.
T = Trace of Precipitation, MM = Missing Value Source: NWS Daily Summary

Daily Weather History Graph

Daily Weather History Graph

Search for Another Location

Airport or City:

Trip Planner

Search our weather history database for the weather conditions in past years. The results will help you decide how hot, cold, wet, or windy it might be!

Date:

Astronomy

Feb. 18, 2014 Rise Set
Actual Time 7:08 AM PST 5:46 PM PST
Civil Twilight 6:38 AM PST 6:16 PM PST
Nautical Twilight 6:04 AM PST 6:50 PM PST
Astronomical Twilight 5:31 AM PST 7:23 PM PST
Moon 9:56 PM PST (2/18) 8:33 AM PST (2/18)
Length of Visible Light 11h 37m
Length of Day
10h 37m
Waning Gibbous, 86% of the Moon is Illuminated
Feb 18
Waning Gibbous
Feb 22
Last Quarter
Mar 1
New
Mar 8
First Quarter
Mar 16
Full

Hourly Weather History & Observations

Time (PST) Temp. Windchill Dew Point Humidity Pressure Visibility Wind Dir Wind Speed Gust Speed Precip Events Conditions
12:15 AM 46.4 °F 40.7 °F 44.6 °F 93% 30.05 in 8.0 mi South 12.7 mph - 0.02 in   Overcast
12:35 AM 46.4 °F 40.1 °F 44.6 °F 93% 30.05 in 10.0 mi South 15.0 mph - 0.02 in   Mostly Cloudy
12:55 AM 46.4 °F 41.1 °F 44.6 °F 93% 30.05 in 10.0 mi South 11.5 mph - 0.02 in   Overcast
1:15 AM 46.4 °F 41.1 °F 44.6 °F 93% 30.06 in 10.0 mi SSW 11.5 mph - N/A   Mostly Cloudy
1:35 AM 46.4 °F 41.5 °F 42.8 °F 87% 30.07 in 10.0 mi SSW 10.4 mph - N/A   Scattered Clouds
1:55 AM 46.4 °F 41.9 °F 42.8 °F 87% 30.07 in 10.0 mi SSW 9.2 mph - N/A   Partly Cloudy
2:15 AM 44.6 °F 41.4 °F 42.8 °F 93% 30.07 in 10.0 mi ESE 5.8 mph - N/A   Scattered Clouds
2:35 AM 44.6 °F 40.2 °F 42.8 °F 93% 30.08 in 10.0 mi SE 8.1 mph - N/A   Mostly Cloudy
2:55 AM 46.4 °F 40.4 °F 42.8 °F 87% 30.07 in 10.0 mi ESE 13.8 mph - N/A   Overcast
3:15 AM 46.4 °F 41.9 °F 42.8 °F 87% 30.06 in 10.0 mi SE 9.2 mph - N/A   Mostly Cloudy
3:35 AM 46.4 °F 41.9 °F 44.6 °F 93% 30.06 in 10.0 mi SSE 9.2 mph - N/A   Overcast
3:55 AM 46.4 °F 42.4 °F 44.6 °F 93% 30.06 in 10.0 mi SE 8.1 mph - N/A   Overcast
4:15 AM 46.4 °F 42.9 °F 42.8 °F 87% 30.05 in 10.0 mi SE 6.9 mph - N/A   Overcast
4:35 AM 46.4 °F 41.5 °F 44.6 °F 93% 30.05 in 10.0 mi South 10.4 mph - N/A   Scattered Clouds
4:55 AM 46.4 °F 40.1 °F 44.6 °F 93% 30.04 in 10.0 mi South 15.0 mph - N/A   Mostly Cloudy
5:15 AM 46.4 °F 40.4 °F 44.6 °F 93% 30.03 in 10.0 mi South 13.8 mph - N/A   Mostly Cloudy
5:35 AM 46.4 °F 40.4 °F 44.6 °F 93% 30.03 in 10.0 mi South 13.8 mph - N/A   Mostly Cloudy
5:55 AM 46.4 °F 41.1 °F 44.6 °F 93% 30.02 in 10.0 mi South 11.5 mph - 0.01 in   Overcast
6:15 AM 46.4 °F 40.7 °F 44.6 °F 93% 30.01 in 10.0 mi South 12.7 mph - N/A   Overcast
6:35 AM 46.4 °F 40.4 °F 44.6 °F 93% 30.00 in 10.0 mi South 13.8 mph - 0.01 in   Overcast
6:55 AM 46.4 °F 40.4 °F 44.6 °F 93% 29.99 in 10.0 mi South 13.8 mph - 0.01 in   Overcast
7:15 AM 46.4 °F 40.4 °F 44.6 °F 93% 29.98 in 10.0 mi South 13.8 mph - N/A   Overcast
7:35 AM 46.4 °F 40.1 °F 44.6 °F 93% 29.97 in 10.0 mi South 15.0 mph - N/A   Overcast
7:55 AM 46.4 °F 39.2 °F 44.6 °F 93% 29.97 in 10.0 mi South 18.4 mph - 0.01 in   Overcast
8:15 AM 46.4 °F 38.7 °F 44.6 °F 93% 29.96 in 10.0 mi South 20.7 mph 25.3 mph 0.01 in   Overcast
8:35 AM 48.2 °F - 44.6 °F 87% 29.96 in 10.0 mi South 19.6 mph - 0.02 in   Overcast
8:55 AM 48.2 °F - 46.4 °F 93% 29.95 in 10.0 mi South 18.4 mph 25.3 mph 0.02 in   Overcast
9:15 AM 48.2 °F - 46.4 °F 93% 29.95 in 10.0 mi South 19.6 mph 25.3 mph 0.01 in   Overcast
9:35 AM 48.2 °F - 46.4 °F 93% 29.94 in 10.0 mi South 18.4 mph 25.3 mph 0.02 in   Overcast
9:55 AM 48.2 °F - 46.4 °F 93% 29.93 in 10.0 mi South 19.6 mph - 0.04 in   Overcast
10:15 AM 48.2 °F - 46.4 °F 93% 29.92 in 10.0 mi South 19.6 mph 24.2 mph 0.01 in   Overcast
10:35 AM 48.2 °F - 46.4 °F 93% 29.90 in 10.0 mi South 21.9 mph 25.3 mph 0.03 in   Overcast
10:55 AM 50.0 °F - 46.4 °F 87% 29.88 in 10.0 mi South 25.3 mph 28.8 mph 0.04 in   Overcast
11:15 AM 50.0 °F - 46.4 °F 87% 29.87 in 10.0 mi South 24.2 mph 29.9 mph 0.01 in   Overcast
11:35 AM 50.0 °F - 46.4 °F 87% 29.86 in 8.0 mi South 23.0 mph 31.1 mph 0.04 in   Overcast
11:55 AM 50.0 °F - 46.4 °F 87% 29.85 in 8.0 mi South 21.9 mph 27.6 mph 0.08 in   Overcast
12:15 PM 51.8 °F - 48.2 °F 88% 29.85 in 8.0 mi South 16.1 mph 25.3 mph 0.07 in   Overcast
12:35 PM 53.6 °F - 48.2 °F 82% 29.83 in 7.0 mi South 15.0 mph - 0.15 in   Overcast
12:55 PM 53.6 °F - 48.2 °F 82% 29.82 in 7.0 mi South 17.3 mph - 0.22 in   Overcast
1:15 PM 53.6 °F - 48.2 °F 82% 29.81 in 8.0 mi South 13.8 mph - 0.05 in   Mostly Cloudy
1:35 PM 53.6 °F - 48.2 °F 82% 29.83 in 8.0 mi SSW 12.7 mph - 0.14 in   Overcast
1:55 PM 53.6 °F - 48.2 °F 82% 29.83 in 8.0 mi South 11.5 mph - 0.22 in   Mostly Cloudy
2:15 PM 53.6 °F - 48.2 °F 82% 29.83 in 10.0 mi WSW 13.8 mph - 0.03 in   Overcast
2:35 PM 51.8 °F - 46.4 °F 82% 29.85 in 9.0 mi WNW 13.8 mph 17.3 mph 0.05 in   Overcast
2:55 PM 50.0 °F - 44.6 °F 82% 29.87 in 10.0 mi West 8.1 mph - 0.06 in   Overcast
3:15 PM 48.2 °F - 44.6 °F 87% 29.88 in 10.0 mi WSW 6.9 mph 17.3 mph 0.02 in   Overcast
3:35 PM 48.2 °F - 44.6 °F 87% 29.88 in 10.0 mi West 4.6 mph - 0.03 in   Overcast
3:55 PM 48.2 °F - 42.8 °F 82% 29.89 in 10.0 mi West 6.9 mph - 0.04 in   Overcast
4:15 PM 46.4 °F 43.5 °F 42.8 °F 87% 29.89 in 10.0 mi South 5.8 mph - N/A   Overcast
4:35 PM 46.4 °F 40.4 °F 42.8 °F 87% 29.90 in 10.0 mi South 13.8 mph - N/A   Overcast
4:55 PM 46.4 °F 43.5 °F 42.8 °F 87% 29.92 in 10.0 mi NNW 5.8 mph - N/A   Overcast
5:15 PM 44.6 °F 37.4 °F 39.2 °F 81% 29.93 in 5.0 mi West 16.1 mph 25.3 mph 0.01 in   Overcast
5:35 PM 44.6 °F 40.7 °F 39.2 °F 81% 29.94 in 10.0 mi WSW 6.9 mph - 0.02 in   Overcast
5:55 PM 44.6 °F - 39.2 °F 81% 29.93 in 10.0 mi Calm Calm - 0.02 in   Scattered Clouds
6:15 PM 44.6 °F 40.2 °F 37.4 °F 76% 29.96 in 10.0 mi WNW 8.1 mph - N/A   Scattered Clouds
6:35 PM 44.6 °F 39.7 °F 37.4 °F 76% 29.97 in 10.0 mi West 9.2 mph - N/A   Mostly Cloudy
6:55 PM 44.6 °F 40.2 °F 37.4 °F 76% 29.98 in 10.0 mi WNW 8.1 mph - N/A   Mostly Cloudy
7:15 PM 44.6 °F 38.4 °F 33.8 °F 66% 29.98 in 10.0 mi West 12.7 mph 23.0 mph N/A   Scattered Clouds
7:35 PM 44.6 °F 38.8 °F 33.8 °F 66% 29.98 in 10.0 mi WNW 11.5 mph 19.6 mph N/A   Mostly Cloudy
7:55 PM 42.8 °F 40.1 °F 35.6 °F 76% 30.00 in 10.0 mi WSW 4.6 mph - N/A   Mostly Cloudy
8:15 PM 42.8 °F 40.1 °F 35.6 °F 76% 30.02 in 10.0 mi SW 4.6 mph - N/A   Mostly Cloudy
8:35 PM 41.0 °F 37.1 °F 35.6 °F 81% 30.02 in 10.0 mi WSW 5.8 mph - N/A   Mostly Cloudy
8:55 PM 41.0 °F 38.0 °F 35.6 °F 81% 30.03 in 10.0 mi SSW 4.6 mph - N/A   Mostly Cloudy
9:15 PM 39.2 °F 34.2 °F 35.6 °F 87% 30.04 in 10.0 mi SSE 6.9 mph - N/A   Mostly Cloudy
9:35 PM 39.2 °F 35.0 °F 37.4 °F 93% 30.05 in 10.0 mi South 5.8 mph - N/A   Overcast
9:55 PM 39.2 °F 35.9 °F 37.4 °F 93% 30.05 in 10.0 mi West 4.6 mph - N/A   Scattered Clouds
10:15 PM 37.4 °F - 35.6 °F 93% 30.06 in 10.0 mi Calm Calm - N/A   Partly Cloudy
11:55 PM 39.2 °F - 35.6 °F 87% 30.09 in 10.0 mi Calm Calm - N/A   Mostly Cloudy